createdAt,value
2023-04-22T00:00:23.446Z,10.58
2023-04-22T00:01:27.777Z,10.52
2023-04-22T00:02:32.127Z,10.51
2023-04-22T00:03:35.803Z,10.39
2023-04-22T00:04:42.302Z,10.39
2023-04-22T00:05:48.778Z,10.42
2023-04-22T00:06:52.918Z,10.41
2023-04-22T00:08:04.879Z,10.56
2023-04-22T00:09:08.402Z,10.55
2023-04-22T00:10:11.265Z,10.46
2023-04-22T00:11:15.090Z,10.42
2023-04-22T00:12:17.745Z,10.38
2023-04-22T00:13:23.560Z,10.38
2023-04-22T00:14:26.955Z,10.33
2023-04-22T00:15:30.136Z,10.35
2023-04-22T00:16:34.439Z,10.38
2023-04-22T00:17:37.674Z,10.31
2023-04-22T00:18:41.079Z,10.34
2023-04-22T00:19:44.587Z,10.34
2023-04-22T00:20:48.413Z,10.36
2023-04-22T00:21:50.874Z,10.27
2023-04-22T00:22:55.274Z,10.26
2023-04-22T00:24:00.114Z,10.28
2023-04-22T00:25:03.754Z,10.33
2023-04-22T00:26:07.180Z,10.42
2023-04-22T00:27:11.835Z,10.45
2023-04-22T00:28:15.993Z,10.35
2023-04-22T00:29:19.362Z,10.43
2023-04-22T00:30:24.006Z,10.43
2023-04-22T00:31:29.032Z,10.41
2023-04-22T00:32:32.282Z,10.44
2023-04-22T00:33:36.715Z,10.44
2023-04-22T00:34:40.223Z,10.42
2023-04-22T00:35:43.123Z,10.43
2023-04-22T00:36:45.778Z,10.39
2023-04-22T00:37:49.662Z,10.39
2023-04-22T00:38:52.777Z,10.27
2023-04-22T00:39:57.223Z,10.17
2023-04-22T00:41:01.049Z,10.10
2023-04-22T00:42:08.904Z,10.10
2023-04-22T00:43:15.613Z,10.17
2023-04-22T00:44:19.296Z,10.29
2023-04-22T00:45:23.637Z,10.26
2023-04-22T00:46:29.565Z,10.28
2023-04-22T00:47:35.721Z,10.19
2023-04-22T00:48:38.540Z,10.12
2023-04-22T00:49:42.886Z,10.15
2023-04-22T00:50:49.097Z,10.19
2023-04-22T00:51:54.900Z,10.23
2023-04-22T00:52:58.064Z,10.38
2023-04-22T00:54:06.186Z,10.43
2023-04-22T00:55:10.113Z,10.42
2023-04-22T00:56:14.454Z,10.42
2023-04-22T00:57:19.215Z,10.39
2023-04-22T00:58:23.174Z,10.25
2023-04-22T00:59:28.520Z,10.21
2023-04-22T01:00:33.726Z,10.26
2023-04-22T01:01:37.926Z,10.29
2023-04-22T01:02:41.701Z,10.16
2023-04-22T01:03:46.750Z,10.14
2023-04-22T01:04:53.888Z,10.11
2023-04-22T01:05:59.067Z,10.15
2023-04-22T01:07:05.333Z,10.23
2023-04-22T01:08:08.161Z,10.26
2023-04-22T01:09:11.881Z,10.30
2023-04-22T01:10:14.963Z,10.31
2023-04-22T01:11:21.379Z,10.35
2023-04-22T01:12:25.750Z,10.39
2023-04-22T01:13:31.165Z,10.37
2023-04-22T01:14:35.166Z,10.17
2023-04-22T01:15:38.474Z,10.01
2023-04-22T01:16:43.030Z,10.05
2023-04-22T01:17:48.066Z,10.08
2023-04-22T01:18:51.251Z,10.20
2023-04-22T01:19:55.058Z,10.15
2023-04-22T01:20:57.736Z,10.08
2023-04-22T01:22:04.709Z,10.01
2023-04-22T01:23:09.861Z,9.77
2023-04-22T01:24:14.656Z,9.83
2023-04-22T01:25:18.267Z,9.85
2023-04-22T01:26:23.097Z,9.83
2023-04-22T01:27:26.420Z,10.00
2023-04-22T01:28:30.131Z,10.05
2023-04-22T01:29:37.392Z,10.15
2023-04-22T01:30:43.093Z,10.22
2023-04-22T01:31:47.223Z,10.21
2023-04-22T01:32:51.060Z,10.23
2023-04-22T01:33:55.475Z,10.24
2023-04-22T01:34:58.999Z,10.11
2023-04-22T01:36:02.683Z,10.16
2023-04-22T01:37:07.339Z,10.20
2023-04-22T01:38:10.738Z,10.16
2023-04-22T01:39:14.260Z,10.14
2023-04-22T01:40:18.898Z,10.14
2023-04-22T01:41:23.030Z,10.13
2023-04-22T01:42:28.408Z,10.06
2023-04-22T01:43:31.714Z,10.08
2023-04-22T01:44:35.109Z,10.09
2023-04-22T01:45:40.309Z,10.04
2023-04-22T01:46:43.720Z,9.98
2023-04-22T01:47:46.991Z,10.01
2023-04-22T01:48:53.612Z,9.98
2023-04-22T01:50:00.796Z,9.98
2023-04-22T01:51:04.188Z,10.03
2023-04-22T01:52:08.731Z,10.00
2023-04-22T01:53:12.365Z,9.98
2023-04-22T01:54:17.632Z,9.97
2023-04-22T01:55:25.607Z,10.02
2023-04-22T01:56:29.221Z,10.05
2023-04-22T01:57:32.612Z,10.13
2023-04-22T01:58:36.476Z,10.17
2023-04-22T01:59:42.566Z,10.18
2023-04-22T02:00:47.476Z,10.09
2023-04-22T02:01:51.612Z,10.08
2023-04-22T02:02:55.123Z,10.10
2023-04-22T02:03:59.928Z,10.12
2023-04-22T02:05:02.905Z,10.06
2023-04-22T02:06:05.481Z,10.05
2023-04-22T02:07:08.870Z,9.90
2023-04-22T02:08:12.720Z,10.01
2023-04-22T02:09:17.229Z,9.97
2023-04-22T02:10:22.626Z,9.98
2023-04-22T02:11:26.251Z,9.86
2023-04-22T02:12:29.741Z,9.91
2023-04-22T02:13:43.664Z,9.92
2023-04-22T02:14:49.459Z,9.89
2023-04-22T02:15:53.440Z,9.97
2023-04-22T02:16:58.459Z,10.03
2023-04-22T02:18:03.148Z,10.05
2023-04-22T02:19:06.107Z,10.00
2023-04-22T02:20:13.658Z,9.90
2023-04-22T02:21:16.899Z,9.77
2023-04-22T02:22:19.668Z,9.66
2023-04-22T02:23:25.678Z,9.61
2023-04-22T02:24:30.217Z,9.57
2023-04-22T02:25:34.661Z,9.53
2023-04-22T02:26:38.071Z,9.56
2023-04-22T02:27:41.996Z,9.52
2023-04-22T02:28:46.221Z,9.55
2023-04-22T02:29:49.950Z,9.53
2023-04-22T02:30:53.693Z,9.50
2023-04-22T02:32:00.715Z,9.39
2023-04-22T02:33:05.986Z,9.36
2023-04-22T02:34:09.188Z,9.34
2023-04-22T02:35:12.492Z,9.35
2023-04-22T02:36:15.890Z,9.28
2023-04-22T02:37:20.713Z,9.21
2023-04-22T02:38:24.461Z,9.21
2023-04-22T02:39:28.790Z,9.18
2023-04-22T02:40:33.349Z,9.25
2023-04-22T02:41:36.233Z,9.25
2023-04-22T02:42:39.950Z,9.27
2023-04-22T02:43:45.401Z,9.29
2023-04-22T02:44:49.272Z,9.27
2023-04-22T02:45:53.395Z,9.21
2023-04-22T02:46:58.001Z,9.31
2023-04-22T02:48:01.515Z,9.11
2023-04-22T02:49:05.968Z,9.22
2023-04-22T02:50:09.292Z,9.19
2023-04-22T02:51:13.936Z,9.14
2023-04-22T02:52:17.132Z,9.10
2023-04-22T02:53:20.528Z,9.10
2023-04-22T02:54:24.125Z,9.12
2023-04-22T02:55:27.854Z,9.16
2023-04-22T02:56:32.310Z,9.20
2023-04-22T02:57:35.909Z,9.24
2023-04-22T02:58:39.410Z,9.21
2023-04-22T02:59:43.656Z,9.13
2023-04-22T03:00:48.984Z,9.06
2023-04-22T03:01:52.558Z,9.15
2023-04-22T03:03:03.558Z,9.18
2023-04-22T03:04:08.737Z,9.34
2023-04-22T03:05:12.269Z,9.43
2023-04-22T03:06:14.808Z,9.62
2023-04-22T03:07:19.798Z,9.65
2023-04-22T03:08:23.319Z,9.64
2023-04-22T03:09:25.750Z,9.74
2023-04-22T03:10:29.272Z,9.59
2023-04-22T03:11:33.585Z,9.54
2023-04-22T03:12:38.972Z,9.53
2023-04-22T03:13:41.545Z,9.60
2023-04-22T03:14:45.170Z,9.64
2023-04-22T03:15:49.066Z,9.65
2023-04-22T03:16:55.488Z,9.82
2023-04-22T03:18:03.453Z,9.83
2023-04-22T03:19:06.258Z,9.91
2023-04-22T03:20:09.867Z,10.03
2023-04-22T03:21:13.277Z,10.11
2023-04-22T03:22:17.102Z,10.04
2023-04-22T03:23:20.418Z,10.04
2023-04-22T03:24:23.686Z,10.14
2023-04-22T03:25:28.821Z,10.24
2023-04-22T03:26:32.265Z,10.09
2023-04-22T03:27:36.086Z,10.05
2023-04-22T03:28:40.858Z,10.06
2023-04-22T03:29:44.350Z,10.26
2023-04-22T03:30:48.035Z,10.36
2023-04-22T03:31:53.093Z,10.57
2023-04-22T03:32:56.981Z,10.72
2023-04-22T03:34:02.160Z,10.82
2023-04-22T03:35:07.004Z,10.91
2023-04-22T03:36:14.676Z,10.73
2023-04-22T03:37:17.740Z,10.64
2023-04-22T03:38:23.057Z,10.63
2023-04-22T03:39:28.136Z,10.81
2023-04-22T03:40:30.574Z,10.95
2023-04-22T03:41:34.290Z,11.00
2023-04-22T03:42:38.246Z,11.11
2023-04-22T03:43:41.715Z,11.14
2023-04-22T03:44:53.474Z,11.14
2023-04-22T03:46:01.851Z,10.85
2023-04-22T03:47:07.166Z,10.80
2023-04-22T03:48:12.760Z,10.83
2023-04-22T03:49:18.151Z,10.88
2023-04-22T03:50:23.652Z,10.91
2023-04-22T03:51:29.636Z,10.94
2023-04-22T03:52:34.629Z,10.83
2023-04-22T03:53:38.117Z,11.00
2023-04-22T03:54:41.825Z,10.84
2023-04-22T03:55:45.256Z,10.95
2023-04-22T03:56:52.414Z,10.91
2023-04-22T03:58:00.603Z,10.93
2023-04-22T03:59:04.112Z,10.80
2023-04-22T04:00:08.967Z,10.90
2023-04-22T04:01:15.637Z,11.15
2023-04-22T04:02:19.905Z,11.36
2023-04-22T04:03:23.922Z,11.43
2023-04-22T04:04:30.245Z,11.41
2023-04-22T04:05:36.077Z,11.61
2023-04-22T04:06:40.024Z,11.83
2023-04-22T04:07:43.422Z,12.00
2023-04-22T04:08:50.329Z,12.03
2023-04-22T04:09:53.152Z,12.13
2023-04-22T04:10:55.702Z,12.23
2023-04-22T04:11:58.593Z,12.42
2023-04-22T04:13:04.509Z,12.42
2023-04-22T04:14:09.779Z,12.47
2023-04-22T04:15:22.162Z,12.54
2023-04-22T04:16:29.555Z,12.68
2023-04-22T04:17:34.829Z,12.69
2023-04-22T04:18:39.362Z,12.67
2023-04-22T04:19:43.351Z,12.71
2023-04-22T04:20:46.164Z,12.67
2023-04-22T04:21:49.782Z,12.41
2023-04-22T04:22:52.953Z,12.61
2023-04-22T04:23:56.781Z,12.73
2023-04-22T04:25:02.585Z,13.22
2023-04-22T04:26:09.127Z,13.23
2023-04-22T04:27:14.514Z,13.15
2023-04-22T04:28:19.886Z,13.11
2023-04-22T04:29:23.710Z,13.27
2023-04-22T04:30:27.836Z,13.35
2023-04-22T04:31:33.024Z,13.55
2023-04-22T04:32:38.156Z,13.57
2023-04-22T04:33:46.661Z,14.13
2023-04-22T04:34:53.015Z,14.48
2023-04-22T04:35:58.802Z,14.38
2023-04-22T04:37:04.381Z,14.39
2023-04-22T04:38:08.766Z,14.50
2023-04-22T04:39:12.430Z,14.69
2023-04-22T04:40:16.187Z,14.53
2023-04-22T04:41:23.200Z,14.33
2023-04-22T04:42:27.071Z,13.96
2023-04-22T04:43:35.920Z,14.05
2023-04-22T04:44:41.170Z,14.08
2023-04-22T04:45:48.890Z,14.51
2023-04-22T04:46:55.192Z,14.94
2023-04-22T04:47:58.240Z,15.06
2023-04-22T04:49:06.268Z,15.08
2023-04-22T04:50:12.284Z,14.91
2023-04-22T04:51:20.420Z,15.20
2023-04-22T04:52:25.972Z,15.54
2023-04-22T04:53:29.814Z,16.87
2023-04-22T04:54:33.204Z,17.96
2023-04-22T04:55:37.122Z,18.31
2023-04-22T04:56:42.824Z,18.55
2023-04-22T04:57:46.660Z,19.43
2023-04-22T04:58:49.728Z,20.07
2023-04-22T04:59:57.503Z,20.32
2023-04-22T05:01:01.145Z,21.09
2023-04-22T05:02:06.127Z,21.83
2023-04-22T05:03:11.147Z,22.78
2023-04-22T05:04:14.892Z,23.36
2023-04-22T05:05:20.638Z,23.78
2023-04-22T05:06:25.884Z,24.36
2023-04-22T05:07:31.246Z,24.20
2023-04-22T05:08:33.593Z,24.65
2023-04-22T05:09:41.081Z,24.73
2023-04-22T05:10:44.671Z,24.61
2023-04-22T05:11:49.995Z,24.85
2023-04-22T05:12:56.073Z,24.01
2023-04-22T05:14:00.727Z,24.11
2023-04-22T05:15:09.466Z,24.69
2023-04-22T05:16:15.769Z,24.87
2023-04-22T05:17:19.542Z,25.57
2023-04-22T05:18:23.736Z,26.01
2023-04-22T05:19:27.244Z,26.19
2023-04-22T05:20:32.135Z,25.42
2023-04-22T05:21:35.611Z,25.27
2023-04-22T05:22:39.126Z,25.28
2023-04-22T05:23:43.690Z,25.20
2023-04-22T05:24:47.592Z,25.44
2023-04-22T05:25:53.586Z,24.84
2023-04-22T05:26:56.893Z,23.87
2023-04-22T05:28:00.241Z,23.96
2023-04-22T05:29:06.545Z,24.24
2023-04-22T05:30:11.591Z,24.90
2023-04-22T05:31:15.304Z,23.71
2023-04-22T05:32:19.201Z,23.88
2023-04-22T05:33:22.945Z,24.16
2023-04-22T05:34:27.174Z,24.47
2023-04-22T05:35:31.100Z,25.26
2023-04-22T05:36:35.039Z,25.13
2023-04-22T05:37:39.766Z,25.28
2023-04-22T05:38:42.851Z,24.33
2023-04-22T05:39:49.208Z,24.41
2023-04-22T05:40:52.697Z,23.49
2023-04-22T05:41:59.445Z,23.10
2023-04-22T05:43:08.530Z,22.65
2023-04-22T05:44:12.298Z,21.44
2023-04-22T05:45:16.253Z,21.69
2023-04-22T05:46:20.673Z,21.80
2023-04-22T05:47:26.493Z,22.66
2023-04-22T05:48:33.301Z,22.66
2023-04-22T05:49:39.868Z,22.38
2023-04-22T05:52:04.411Z,21.60
2023-04-22T05:53:08.977Z,21.47
2023-04-22T05:54:13.081Z,21.76
2023-04-22T05:55:19.544Z,21.39
2023-04-22T05:56:26.032Z,21.47
2023-04-22T05:57:29.755Z,21.48
2023-04-22T05:58:34.938Z,21.73
2023-04-22T05:59:40.485Z,22.55
2023-04-22T06:00:44.246Z,21.80
2023-04-22T06:01:48.902Z,21.44
2023-04-22T06:02:54.017Z,21.13
2023-04-22T06:03:57.239Z,21.37
2023-04-22T06:05:01.336Z,21.35
2023-04-22T06:06:06.522Z,21.02
2023-04-22T06:07:14.067Z,21.35
2023-04-22T06:08:17.563Z,21.99
2023-04-22T06:09:22.005Z,22.50
2023-04-22T06:10:25.717Z,21.72
2023-04-22T06:11:29.833Z,22.26
2023-04-22T06:12:34.312Z,21.96
2023-04-22T06:13:38.872Z,22.39
2023-04-22T06:14:41.616Z,22.42
2023-04-22T06:15:45.514Z,22.84
2023-04-22T06:16:51.026Z,22.48
2023-04-22T06:17:54.177Z,21.82
2023-04-22T06:18:57.928Z,21.47
2023-04-22T06:20:01.436Z,21.23
2023-04-22T06:21:06.623Z,20.49
2023-04-22T06:22:28.697Z,20.54
2023-04-22T06:23:32.320Z,21.35
2023-04-22T06:24:38.851Z,21.43
2023-04-22T06:25:44.340Z,21.62
2023-04-22T06:26:48.377Z,22.73
2023-04-22T06:27:51.633Z,23.06
2023-04-22T06:28:59.889Z,22.80
2023-04-22T06:30:03.705Z,22.88
2023-04-22T06:31:07.114Z,22.67
2023-04-22T06:32:10.908Z,22.18
2023-04-22T06:33:14.265Z,23.37
2023-04-22T06:34:20.700Z,23.56
2023-04-22T06:35:24.449Z,23.66
2023-04-22T06:36:30.758Z,23.90
2023-04-22T06:37:37.135Z,24.94
2023-04-22T06:38:42.956Z,26.12
2023-04-22T06:40:07.997Z,26.41
2023-04-22T06:41:28.367Z,27.49
2023-04-22T06:42:37.494Z,28.74
2023-04-22T06:43:55.511Z,29.55
2023-04-22T06:45:01.152Z,29.05
2023-04-22T06:46:06.324Z,29.01
2023-04-22T06:47:21.225Z,29.21
2023-04-22T06:48:29.600Z,30.23
2023-04-22T06:49:45.486Z,30.46
2023-04-22T06:52:07.784Z,31.31
2023-04-22T06:53:13.583Z,31.31
2023-04-22T06:54:17.951Z,30.65
2023-04-22T06:55:21.249Z,31.10
2023-04-22T06:56:25.324Z,31.91
2023-04-22T06:57:31.915Z,31.39
2023-04-22T06:58:36.882Z,30.70
2023-04-22T06:59:40.780Z,30.55
2023-04-22T07:00:44.916Z,30.25
2023-04-22T07:01:50.049Z,30.17
2023-04-22T07:02:56.599Z,30.25
2023-04-22T07:04:00.188Z,31.29
2023-04-22T07:05:03.725Z,30.74
2023-04-22T07:06:08.061Z,29.62
2023-04-22T07:07:11.901Z,30.44
2023-04-22T07:08:14.883Z,31.15
2023-04-22T07:09:18.277Z,32.27
2023-04-22T07:10:22.097Z,33.35
2023-04-22T07:11:29.109Z,33.45
2023-04-22T07:12:36.837Z,33.72
2023-04-22T07:13:40.019Z,32.50
2023-04-22T07:14:46.043Z,30.77
2023-04-22T07:15:49.443Z,30.40
2023-04-22T07:16:54.318Z,30.60
2023-04-22T07:17:57.227Z,29.69
2023-04-22T07:18:59.677Z,30.09
2023-04-22T07:20:03.147Z,29.38
2023-04-22T07:21:07.915Z,28.09
2023-04-22T07:22:11.210Z,27.63
2023-04-22T07:23:14.787Z,26.81
2023-04-22T07:24:18.208Z,27.17
2023-04-22T07:25:21.815Z,26.49
2023-04-22T07:26:25.322Z,25.49
2023-04-22T07:27:29.683Z,26.33
2023-04-22T07:28:33.166Z,25.13
2023-04-22T07:29:37.069Z,25.26
2023-04-22T07:30:39.644Z,24.83
2023-04-22T07:31:43.491Z,24.05
2023-04-22T07:32:49.050Z,23.58
2023-04-22T07:33:53.850Z,23.98
2023-04-22T07:34:57.641Z,23.84
2023-04-22T07:36:01.270Z,23.85
2023-04-22T07:37:05.655Z,23.59
2023-04-22T07:38:09.878Z,23.09
2023-04-22T07:39:16.049Z,23.38
2023-04-22T07:40:19.345Z,23.72
2023-04-22T07:41:22.850Z,23.85
2023-04-22T07:42:26.125Z,24.50
2023-04-22T07:43:30.073Z,24.06
2023-04-22T07:44:34.214Z,24.16
2023-04-22T07:45:38.991Z,24.14
2023-04-22T07:46:45.595Z,24.17
2023-04-22T07:47:48.769Z,24.71
2023-04-22T07:48:51.466Z,24.45
2023-04-22T07:49:55.474Z,24.38
2023-04-22T07:50:58.982Z,23.90
2023-04-22T07:52:01.440Z,24.19
2023-04-22T07:53:05.581Z,24.31
2023-04-22T07:54:08.986Z,24.66
2023-04-22T07:55:12.358Z,25.23
2023-04-22T07:56:14.635Z,26.14
2023-04-22T07:57:17.917Z,25.95
2023-04-22T07:58:21.071Z,25.68
2023-04-22T07:59:24.939Z,24.77
2023-04-22T08:00:30.887Z,26.15
2023-04-22T08:01:34.218Z,26.12
2023-04-22T08:02:37.499Z,24.94
2023-04-22T08:03:41.084Z,24.87
2023-04-22T08:04:45.162Z,25.50
2023-04-22T08:05:49.840Z,25.22
2023-04-22T08:06:53.126Z,25.24
2023-04-22T08:07:56.531Z,25.24
2023-04-22T08:09:00.874Z,25.28
2023-04-22T08:10:03.740Z,24.93
2023-04-22T08:11:08.314Z,24.50
2023-04-22T08:12:11.806Z,24.27
2023-04-22T08:13:16.473Z,24.26
2023-04-22T08:14:19.958Z,24.24
2023-04-22T08:15:24.837Z,25.12
2023-04-22T08:16:28.187Z,25.83
2023-04-22T08:17:31.505Z,27.00
2023-04-22T08:18:34.849Z,27.90
2023-04-22T08:19:39.525Z,26.23
2023-04-22T08:20:44.226Z,25.39
2023-04-22T08:21:46.771Z,25.70
2023-04-22T08:22:51.510Z,25.44
2023-04-22T08:23:56.582Z,25.28
2023-04-22T08:25:00.467Z,24.90
2023-04-22T08:26:04.162Z,24.51
2023-04-22T08:27:07.764Z,24.87
2023-04-22T08:28:13.099Z,24.88
2023-04-22T08:29:16.559Z,24.85
2023-04-22T08:30:20.576Z,24.86
2023-04-22T08:31:24.119Z,26.12
2023-04-22T08:32:29.546Z,25.79
2023-04-22T08:33:32.667Z,26.60
2023-04-22T08:34:37.125Z,27.21
2023-04-22T08:35:41.458Z,27.22
2023-04-22T08:36:44.634Z,26.79
2023-04-22T08:37:48.182Z,25.79
2023-04-22T08:38:51.644Z,25.28
2023-04-22T08:39:54.951Z,25.26
2023-04-22T08:41:03.035Z,24.90
2023-04-22T08:42:06.969Z,24.39
2023-04-22T08:43:10.476Z,25.16
2023-04-22T08:44:14.811Z,25.35
2023-04-22T08:45:17.587Z,25.42
2023-04-22T08:46:23.031Z,25.66
2023-04-22T08:47:26.373Z,25.37
2023-04-22T08:48:29.793Z,24.61
2023-04-22T08:49:36.446Z,24.59
2023-04-22T08:50:40.499Z,24.43
2023-04-22T08:51:43.547Z,24.74
2023-04-22T08:52:48.497Z,24.73
2023-04-22T08:53:50.804Z,24.23
2023-04-22T08:54:53.923Z,24.65
2023-04-22T08:55:58.421Z,25.28
2023-04-22T08:57:03.113Z,25.25
2023-04-22T08:58:06.488Z,25.10
2023-04-22T08:59:12.662Z,24.52
2023-04-22T09:00:18.016Z,24.15
2023-04-22T09:01:23.561Z,24.16
2023-04-22T09:02:28.676Z,24.47
2023-04-22T09:03:32.423Z,25.25
2023-04-22T09:04:35.974Z,25.24
2023-04-22T09:05:40.784Z,24.75
2023-04-22T09:06:43.974Z,24.81
2023-04-22T09:07:49.804Z,24.82
2023-04-22T09:08:52.561Z,24.27
2023-04-22T09:09:55.758Z,24.62
2023-04-22T09:11:00.919Z,24.49
2023-04-22T09:12:06.105Z,25.00
2023-04-22T09:13:11.165Z,24.35
2023-04-22T09:14:14.686Z,24.06
2023-04-22T09:15:18.594Z,23.95
2023-04-22T09:16:21.977Z,24.28
2023-04-22T09:17:36.740Z,24.39
2023-04-22T09:18:41.952Z,23.85
2023-04-22T09:19:45.261Z,24.03
2023-04-22T09:20:49.285Z,24.20
2023-04-22T09:21:54.416Z,24.24
2023-04-22T09:23:01.841Z,24.78
2023-04-22T09:24:06.071Z,24.64
2023-04-22T09:25:26.608Z,24.57
2023-04-22T09:26:34.307Z,24.41
2023-04-22T09:27:37.995Z,24.21
2023-04-22T09:28:42.128Z,24.25
2023-04-22T09:29:53.028Z,23.55
2023-04-22T09:30:57.286Z,23.39
2023-04-22T09:32:01.187Z,23.84
2023-04-22T09:33:05.579Z,23.88
2023-04-22T09:34:12.454Z,23.78
2023-04-22T09:35:17.287Z,23.64
2023-04-22T09:36:26.147Z,23.87
2023-04-22T09:37:36.108Z,23.96
2023-04-22T09:38:34.766Z,24.17
2023-04-22T09:39:38.230Z,24.27
2023-04-22T09:40:44.238Z,23.78
2023-04-22T09:41:51.035Z,24.19
2023-04-22T09:42:56.125Z,24.31
2023-04-22T09:43:59.531Z,24.18
2023-04-22T09:45:03.008Z,24.50
2023-04-22T09:46:06.308Z,24.40
2023-04-22T09:47:12.028Z,24.43
2023-04-22T09:48:16.374Z,24.70
2023-04-22T09:49:20.586Z,24.35
2023-04-22T09:50:26.218Z,24.10
2023-04-22T09:51:29.992Z,24.01
2023-04-22T09:52:33.624Z,23.70
2023-04-22T09:53:38.697Z,23.71
2023-04-22T09:54:43.838Z,24.01
2023-04-22T09:55:49.022Z,24.06
2023-04-22T09:56:52.535Z,24.15
2023-04-22T09:57:57.218Z,24.70
2023-04-22T09:59:01.725Z,24.37
2023-04-22T10:00:08.377Z,24.12
2023-04-22T10:01:11.185Z,24.34
2023-04-22T10:02:14.937Z,24.17
2023-04-22T10:03:21.234Z,23.74
2023-04-22T10:04:25.769Z,23.66
2023-04-22T10:05:31.214Z,23.32
2023-04-22T10:06:34.938Z,23.45
2023-04-22T10:07:40.654Z,23.94
2023-04-22T10:08:45.187Z,23.70
2023-04-22T10:09:48.586Z,23.61
2023-04-22T10:10:52.925Z,23.24
2023-04-22T10:11:58.549Z,23.50
2023-04-22T10:13:03.366Z,23.60
2023-04-22T10:14:06.781Z,23.71
2023-04-22T10:15:10.193Z,23.56
2023-04-22T10:16:14.502Z,23.23
2023-04-22T10:17:18.342Z,23.16
2023-04-22T10:18:27.336Z,23.51
2023-04-22T10:19:32.665Z,23.17
2023-04-22T10:20:39.316Z,23.04
2023-04-22T10:21:43.694Z,22.19
2023-04-22T10:22:48.799Z,22.12
2023-04-22T10:23:52.218Z,22.33
2023-04-22T10:24:57.906Z,22.38
2023-04-22T10:26:01.393Z,22.20
2023-04-22T10:27:08.200Z,22.18
2023-04-22T10:28:13.717Z,22.20
2023-04-22T10:29:19.548Z,22.12
2023-04-22T10:30:31.277Z,22.19
2023-04-22T10:31:39.127Z,22.18
2023-04-22T10:32:42.940Z,21.61
2023-04-22T10:33:46.009Z,21.36
2023-04-22T10:34:49.931Z,21.43
2023-04-22T10:36:11.277Z,21.51
2023-04-22T10:37:16.760Z,21.50
2023-04-22T10:38:19.864Z,21.64
2023-04-22T10:39:23.903Z,21.32
2023-04-22T10:40:26.477Z,21.61
2023-04-22T10:41:31.127Z,21.31
2023-04-22T10:42:37.027Z,21.34
2023-04-22T10:43:44.466Z,21.07
2023-04-22T10:44:49.058Z,21.39
2023-04-22T10:45:52.702Z,21.57
2023-04-22T10:46:58.219Z,21.95
2023-04-22T10:48:03.824Z,22.00
2023-04-22T10:49:08.007Z,21.79
2023-04-22T10:50:24.783Z,21.67
2023-04-22T10:51:43.194Z,21.79
2023-04-22T10:52:47.947Z,21.94
2023-04-22T10:53:50.303Z,21.95
2023-04-22T10:54:54.426Z,21.89
2023-04-22T10:55:57.790Z,22.15
2023-04-22T10:57:04.799Z,22.27
2023-04-22T10:58:08.998Z,22.55
2023-04-22T10:59:20.373Z,22.40
2023-04-22T11:00:41.692Z,22.68
2023-04-22T11:01:37.549Z,22.88
2023-04-22T11:02:41.819Z,22.61
2023-04-22T11:03:46.389Z,22.40
2023-04-22T11:04:50.431Z,22.11
2023-04-22T11:05:55.902Z,21.94
2023-04-22T11:07:20.781Z,22.00
2023-04-22T11:08:26.109Z,22.49
2023-04-22T11:09:29.353Z,22.32
2023-04-22T11:10:34.723Z,22.20
2023-04-22T11:11:38.927Z,22.26
2023-04-22T11:12:44.610Z,21.94
2023-04-22T11:13:51.026Z,22.07
2023-04-22T11:14:54.868Z,21.82
2023-04-22T11:15:58.291Z,21.68
2023-04-22T11:17:04.556Z,21.59
2023-04-22T11:18:12.381Z,21.39
2023-04-22T11:19:16.023Z,21.59
2023-04-22T11:20:19.809Z,21.45
2023-04-22T11:21:22.715Z,21.49
2023-04-22T11:22:26.038Z,21.78
2023-04-22T11:23:30.492Z,21.69
2023-04-22T11:24:34.672Z,21.95
2023-04-22T11:25:38.175Z,22.14
2023-04-22T11:26:41.664Z,22.18
2023-04-22T11:27:45.081Z,22.42
2023-04-22T11:28:48.888Z,22.35
2023-04-22T11:30:02.222Z,22.21
2023-04-22T11:31:08.104Z,22.54
2023-04-22T11:32:14.258Z,22.14
2023-04-22T11:33:18.072Z,22.29
2023-04-22T11:34:22.388Z,22.44
2023-04-22T11:35:32.271Z,22.55
2023-04-22T11:36:37.450Z,22.69
2023-04-22T11:37:42.919Z,22.84
2023-04-22T11:38:47.489Z,22.69
2023-04-22T11:40:13.546Z,22.31
2023-04-22T11:41:00.872Z,21.82
2023-04-22T11:42:10.134Z,22.06
2023-04-22T11:43:13.428Z,22.00
2023-04-22T11:44:16.929Z,21.74
2023-04-22T11:45:22.179Z,21.59
2023-04-22T11:46:29.063Z,21.70
2023-04-22T11:47:33.111Z,22.02
2023-04-22T11:48:35.531Z,22.13
2023-04-22T11:49:39.653Z,22.02
2023-04-22T11:50:46.872Z,21.87
2023-04-22T11:51:55.036Z,22.29
2023-04-22T11:53:02.928Z,22.28
2023-04-22T11:54:06.734Z,22.51
2023-04-22T11:55:13.904Z,22.55
2023-04-22T11:56:16.545Z,22.22
2023-04-22T11:57:21.857Z,22.25
2023-04-22T11:58:27.342Z,22.03
2023-04-22T11:59:30.524Z,22.49
2023-04-22T12:00:35.710Z,22.58
2023-04-22T12:01:42.449Z,22.67
2023-04-22T12:02:49.677Z,22.92
2023-04-22T12:03:55.062Z,23.11
2023-04-22T12:04:59.362Z,22.78
2023-04-22T12:06:04.823Z,22.81
2023-04-22T12:07:08.286Z,22.85
2023-04-22T12:08:12.870Z,22.90
2023-04-22T12:09:15.987Z,23.31
2023-04-22T12:10:25.154Z,23.43
2023-04-22T12:11:30.731Z,23.09
2023-04-22T12:12:35.570Z,22.63
2023-04-22T12:13:44.452Z,22.36
2023-04-22T12:14:49.713Z,22.09
2023-04-22T12:15:58.832Z,21.80
2023-04-22T12:17:06.062Z,21.75
2023-04-22T12:18:10.032Z,22.28
2023-04-22T12:19:13.521Z,21.59
2023-04-22T12:20:17.435Z,21.67
2023-04-22T12:21:22.544Z,21.41
2023-04-22T12:22:28.412Z,21.40
2023-04-22T12:23:33.662Z,21.21
2023-04-22T12:24:37.416Z,21.26
2023-04-22T12:25:42.186Z,21.13
2023-04-22T12:26:45.575Z,21.38
2023-04-22T12:27:48.979Z,21.42
2023-04-22T12:28:53.246Z,20.98
2023-04-22T12:29:58.943Z,21.30
2023-04-22T12:31:03.303Z,21.11
2023-04-22T12:32:07.070Z,21.09
2023-04-22T12:33:10.371Z,21.28
2023-04-22T12:34:14.443Z,21.34
2023-04-22T12:35:19.092Z,21.41
2023-04-22T12:36:22.753Z,21.37
2023-04-22T12:37:25.119Z,21.67
2023-04-22T12:38:28.303Z,21.73
2023-04-22T12:39:32.728Z,21.85
2023-04-22T12:40:40.062Z,21.92
2023-04-22T12:41:44.784Z,21.82
2023-04-22T12:42:47.030Z,21.24
2023-04-22T12:43:50.546Z,21.01
2023-04-22T12:44:53.822Z,20.96
2023-04-22T12:45:56.136Z,21.11
2023-04-22T12:46:59.589Z,21.01
2023-04-22T12:48:03.233Z,21.20
2023-04-22T12:49:06.914Z,21.13
2023-04-22T12:50:09.468Z,20.73
2023-04-22T12:51:12.518Z,20.97
2023-04-22T12:52:15.364Z,21.07
2023-04-22T12:53:18.545Z,21.30
2023-04-22T12:54:22.350Z,21.46
2023-04-22T12:55:26.426Z,21.32
2023-04-22T12:56:30.848Z,21.51
2023-04-22T12:57:33.491Z,21.60
2023-04-22T12:58:38.552Z,21.39
2023-04-22T12:59:42.194Z,21.41
2023-04-22T13:00:46.685Z,21.03
2023-04-22T13:01:50.046Z,20.96
2023-04-22T13:02:54.065Z,21.29
2023-04-22T13:03:58.980Z,21.41
2023-04-22T13:05:02.515Z,21.49
2023-04-22T13:06:06.020Z,21.44
2023-04-22T13:07:09.518Z,21.31
2023-04-22T13:08:13.041Z,21.28
2023-04-22T13:09:16.848Z,21.16
2023-04-22T13:10:20.142Z,21.21
2023-04-22T13:11:26.340Z,21.05
2023-04-22T13:12:30.620Z,21.14
2023-04-22T13:13:34.013Z,21.08
2023-04-22T13:14:37.399Z,21.12
2023-04-22T13:15:41.421Z,21.00
2023-04-22T13:16:48.693Z,20.97
2023-04-22T13:17:51.927Z,21.06
2023-04-22T13:18:54.553Z,20.98
2023-04-22T13:19:59.309Z,21.01
2023-04-22T13:21:02.816Z,20.99
2023-04-22T13:22:05.498Z,20.67
2023-04-22T13:23:09.761Z,20.63
2023-04-22T13:24:12.898Z,20.73
2023-04-22T13:25:15.689Z,20.82
2023-04-22T13:26:18.448Z,20.72
2023-04-22T13:27:21.729Z,20.70
2023-04-22T13:28:25.802Z,20.72
2023-04-22T13:29:28.236Z,20.70
2023-04-22T13:30:32.063Z,20.62
2023-04-22T13:31:35.550Z,20.55
2023-04-22T13:32:40.148Z,20.69
2023-04-22T13:33:45.501Z,20.89
2023-04-22T13:34:48.916Z,21.14
2023-04-22T13:35:55.643Z,21.20
2023-04-22T13:36:58.314Z,21.15
2023-04-22T13:38:00.866Z,20.92
2023-04-22T13:39:07.109Z,21.05
2023-04-22T13:40:15.882Z,20.95
2023-04-22T13:41:19.228Z,20.72
2023-04-22T13:42:22.943Z,20.91
2023-04-22T13:43:26.659Z,20.94
2023-04-22T13:44:31.207Z,21.30
2023-04-22T13:45:33.454Z,21.18
2023-04-22T13:46:36.969Z,21.15
2023-04-22T13:47:40.587Z,21.05
2023-04-22T13:48:43.648Z,21.13
2023-04-22T13:49:47.182Z,21.12
2023-04-22T13:50:50.678Z,20.91
2023-04-22T13:51:53.650Z,21.03
2023-04-22T13:52:56.753Z,21.08
2023-04-22T13:54:02.542Z,21.20
2023-04-22T13:55:06.648Z,21.28
2023-04-22T13:56:09.234Z,21.29
2023-04-22T13:57:12.868Z,21.40
2023-04-22T13:58:16.278Z,21.26
2023-04-22T13:59:19.846Z,21.60
2023-04-22T14:00:24.509Z,21.59